createdAt,value
2018-07-10T00:00:08.355Z,0
2018-07-10T00:01:16.411Z,0
2018-07-10T00:02:24.468Z,0
2018-07-10T00:03:32.563Z,0
2018-07-10T00:04:40.623Z,0
2018-07-10T00:05:48.675Z,0
2018-07-10T00:06:56.746Z,0
2018-07-10T00:08:04.874Z,0
2018-07-10T00:09:13.471Z,0
2018-07-10T00:10:21.559Z,0
2018-07-10T00:11:29.607Z,0
2018-07-10T00:12:37.694Z,0
2018-07-10T00:13:45.757Z,0
2018-07-10T00:14:53.788Z,0
2018-07-10T00:16:01.887Z,0
2018-07-10T00:17:09.943Z,0
2018-07-10T00:18:18.014Z,0
2018-07-10T00:19:26.075Z,0
2018-07-10T00:20:34.112Z,0
2018-07-10T00:21:42.218Z,0
2018-07-10T00:22:50.286Z,0
2018-07-10T00:23:58.352Z,0
2018-07-10T00:25:06.413Z,0
2018-07-10T00:26:14.485Z,0
2018-07-10T00:27:22.543Z,0
2018-07-10T00:28:30.609Z,0
2018-07-10T00:29:38.676Z,0
2018-07-10T00:30:46.761Z,0
2018-07-10T00:31:55.144Z,0
2018-07-10T00:33:02.875Z,0
2018-07-10T00:34:10.947Z,0
2018-07-10T00:35:18.995Z,0
2018-07-10T00:36:27.072Z,0
2018-07-10T00:37:35.141Z,0
2018-07-10T00:38:43.202Z,0
2018-07-10T00:39:51.282Z,0
2018-07-10T00:40:59.351Z,0
2018-07-10T00:42:07.406Z,0
2018-07-10T00:43:15.474Z,0
2018-07-10T00:44:24.131Z,0
2018-07-10T00:45:32.226Z,0
2018-07-10T00:46:40.290Z,0
2018-07-10T00:47:48.362Z,0
2018-07-10T00:48:56.428Z,0
2018-07-10T00:50:04.479Z,0
2018-07-10T00:51:12.556Z,0
2018-07-10T00:52:20.654Z,0
2018-07-10T00:53:28.703Z,0
2018-07-10T00:54:36.759Z,0
2018-07-10T00:55:44.835Z,0
2018-07-10T00:56:52.899Z,0
2018-07-10T00:58:00.964Z,0
2018-07-10T00:59:09.035Z,0
2018-07-10T01:00:17.097Z,0
2018-07-10T01:01:25.201Z,0
2018-07-10T01:02:33.248Z,0
2018-07-10T01:03:42.719Z,0
2018-07-10T01:04:49.368Z,0
2018-07-10T01:05:57.441Z,0
2018-07-10T01:07:05.514Z,0
2018-07-10T01:08:13.546Z,0
2018-07-10T01:09:21.648Z,0
2018-07-10T01:10:29.720Z,0
2018-07-10T01:11:37.803Z,0
2018-07-10T01:12:45.848Z,0
2018-07-10T01:13:53.895Z,0
2018-07-10T01:15:01.995Z,0
2018-07-10T01:16:10.068Z,0
2018-07-10T01:17:18.130Z,0
2018-07-10T01:18:26.195Z,0
2018-07-10T01:19:34.245Z,0
2018-07-10T01:20:42.336Z,0
2018-07-10T01:21:50.403Z,0
2018-07-10T01:22:58.457Z,0
2018-07-10T01:24:06.532Z,0
2018-07-10T01:25:14.628Z,0
2018-07-10T01:26:22.705Z,0
2018-07-10T01:27:30.760Z,0
2018-07-10T01:28:38.822Z,0
2018-07-10T01:29:46.901Z,0
2018-07-10T01:30:54.965Z,0
2018-07-10T01:32:03.034Z,0
2018-07-10T01:33:11.103Z,0
2018-07-10T01:34:19.189Z,0
2018-07-10T01:35:27.242Z,0
2018-07-10T01:36:35.317Z,0
2018-07-10T01:37:43.392Z,0
2018-07-10T01:38:51.463Z,0
2018-07-10T01:39:59.521Z,0
2018-07-10T01:41:07.585Z,0
2018-07-10T01:42:15.649Z,0
2018-07-10T01:43:23.689Z,0
2018-07-10T01:44:31.775Z,0
2018-07-10T01:45:39.840Z,0
2018-07-10T01:46:47.913Z,0
2018-07-10T01:47:55.974Z,0
2018-07-10T01:49:04.011Z,0
2018-07-10T01:50:12.117Z,0
2018-07-10T01:51:20.178Z,0
2018-07-10T01:52:28.251Z,0
2018-07-10T01:53:36.323Z,0
2018-07-10T01:54:44.402Z,0
2018-07-10T01:55:52.462Z,0
2018-07-10T01:57:00.565Z,0
2018-07-10T01:58:08.590Z,0
2018-07-10T01:59:16.661Z,0
2018-07-10T02:00:24.735Z,0
2018-07-10T02:01:32.809Z,0
2018-07-10T02:02:40.865Z,0
2018-07-10T02:03:48.928Z,0
2018-07-10T02:04:57.004Z,0
2018-07-10T02:06:05.321Z,0
2018-07-10T02:07:13.145Z,0
2018-07-10T02:08:21.210Z,0
2018-07-10T02:09:29.274Z,0
2018-07-10T02:10:37.357Z,0
2018-07-10T02:11:45.401Z,0
2018-07-10T02:12:53.452Z,0
2018-07-10T02:14:01.567Z,0
2018-07-10T02:15:09.610Z,0
2018-07-10T02:16:17.673Z,0
2018-07-10T02:17:25.736Z,0
2018-07-10T02:18:33.780Z,0
2018-07-10T02:19:41.886Z,0
2018-07-10T02:20:49.946Z,0
2018-07-10T02:21:58.021Z,0
2018-07-10T02:23:06.070Z,0
2018-07-10T02:24:14.114Z,0
2018-07-10T02:25:22.229Z,0
2018-07-10T02:26:30.316Z,0
2018-07-10T02:27:38.346Z,0
2018-07-10T02:28:46.403Z,0
2018-07-10T02:29:54.466Z,0
2018-07-10T02:31:02.538Z,0
2018-07-10T02:32:10.597Z,0
2018-07-10T02:33:18.672Z,0
2018-07-10T02:34:26.784Z,0
2018-07-10T02:35:34.798Z,0
2018-07-10T02:36:42.875Z,0
2018-07-10T02:37:50.939Z,0
2018-07-10T02:38:59.006Z,0
2018-07-10T02:40:07.075Z,0
2018-07-10T02:41:15.137Z,0
2018-07-10T02:42:23.203Z,0
2018-07-10T02:43:31.270Z,0
2018-07-10T02:44:39.331Z,0
2018-07-10T02:45:47.414Z,0
2018-07-10T02:46:55.476Z,0
2018-07-10T02:48:03.516Z,0
2018-07-10T02:49:11.602Z,0
2018-07-10T02:50:19.675Z,0
2018-07-10T02:51:27.944Z,0
2018-07-10T02:52:35.996Z,0
2018-07-10T02:53:44.041Z,0
2018-07-10T02:54:52.139Z,0
2018-07-10T02:56:00.225Z,0
2018-07-10T02:57:08.274Z,0
2018-07-10T02:58:16.338Z,0
2018-07-10T02:59:24.394Z,0
2018-07-10T03:00:32.456Z,0
2018-07-10T03:01:40.534Z,0
2018-07-10T03:02:48.603Z,0
2018-07-10T03:03:56.672Z,0
2018-07-10T03:05:04.737Z,0
2018-07-10T03:06:12.805Z,0
2018-07-10T03:07:20.880Z,0
2018-07-10T03:08:28.940Z,0
2018-07-10T03:09:37.032Z,0
2018-07-10T03:10:45.074Z,0
2018-07-10T03:11:53.136Z,0
2018-07-10T03:13:01.231Z,0
2018-07-10T03:14:09.282Z,0
2018-07-10T03:15:17.336Z,0
2018-07-10T03:16:25.415Z,0
2018-07-10T03:17:33.448Z,0
2018-07-10T03:18:41.542Z,0
2018-07-10T03:19:49.598Z,0
2018-07-10T03:20:57.670Z,0
2018-07-10T03:22:05.729Z,0
2018-07-10T03:23:13.797Z,0
2018-07-10T03:24:21.871Z,0
2018-07-10T03:25:29.940Z,0
2018-07-10T03:26:37.997Z,0
2018-07-10T03:27:46.070Z,0
2018-07-10T03:28:54.118Z,0
2018-07-10T03:30:02.220Z,0
2018-07-10T03:31:10.267Z,0
2018-07-10T03:32:18.351Z,0
2018-07-10T03:33:26.418Z,0
2018-07-10T03:34:34.467Z,0
2018-07-10T03:35:42.553Z,0
2018-07-10T03:36:50.609Z,5
2018-07-10T03:37:58.679Z,5
2018-07-10T03:39:06.733Z,5
2018-07-10T03:40:14.819Z,5
2018-07-10T03:41:22.884Z,5
2018-07-10T03:42:30.952Z,5
2018-07-10T03:43:39.008Z,5
2018-07-10T03:44:47.431Z,5
2018-07-10T03:45:55.151Z,5
2018-07-10T03:47:03.217Z,5
2018-07-10T03:48:11.265Z,10
2018-07-10T03:49:19.347Z,10
2018-07-10T03:50:27.413Z,10
2018-07-10T03:51:35.479Z,10
2018-07-10T03:52:43.541Z,10
2018-07-10T03:53:51.621Z,15
2018-07-10T03:54:59.687Z,15
2018-07-10T03:56:07.742Z,15
2018-07-10T03:57:15.827Z,15
2018-07-10T03:58:23.848Z,15
2018-07-10T03:59:31.954Z,15
2018-07-10T04:00:40.010Z,20
2018-07-10T04:01:48.070Z,20
2018-07-10T04:02:56.146Z,20
2018-07-10T04:04:04.194Z,20
2018-07-10T04:05:12.286Z,20
2018-07-10T04:06:20.343Z,20
2018-07-10T04:07:28.409Z,25
2018-07-10T04:08:36.486Z,25
2018-07-10T04:09:44.549Z,25
2018-07-10T04:10:52.609Z,30
2018-07-10T04:12:00.687Z,35
2018-07-10T04:13:08.754Z,40
2018-07-10T04:14:16.823Z,45
2018-07-10T04:15:24.882Z,50
2018-07-10T04:16:32.952Z,55
2018-07-10T04:17:41.018Z,60
2018-07-10T04:18:49.080Z,65
2018-07-10T04:19:57.153Z,65
2018-07-10T04:21:05.223Z,65
2018-07-10T04:22:13.288Z,70
2018-07-10T04:23:21.362Z,70
2018-07-10T04:24:29.432Z,70
2018-07-10T04:25:37.491Z,65
2018-07-10T04:26:45.570Z,70
2018-07-10T04:27:53.594Z,70
2018-07-10T04:29:01.715Z,70
2018-07-10T04:30:09.748Z,60
2018-07-10T04:31:17.825Z,55
2018-07-10T04:32:25.890Z,50
2018-07-10T04:33:33.928Z,50
2018-07-10T04:34:42.029Z,55
2018-07-10T04:35:50.097Z,60
2018-07-10T04:36:58.148Z,60
2018-07-10T04:38:06.240Z,50
2018-07-10T04:39:14.283Z,45
2018-07-10T04:40:22.378Z,40
2018-07-10T04:41:30.468Z,40
2018-07-10T04:42:38.514Z,40
2018-07-10T04:43:46.585Z,35
2018-07-10T04:44:54.755Z,35
2018-07-10T04:46:02.706Z,35
2018-07-10T04:47:10.809Z,45
2018-07-10T04:48:18.830Z,60
2018-07-10T04:49:27.631Z,70
2018-07-10T04:50:34.998Z,70
2018-07-10T04:51:43.035Z,70
2018-07-10T04:52:51.109Z,70
2018-07-10T04:53:59.409Z,80
2018-07-10T04:55:07.250Z,80
2018-07-10T04:56:15.336Z,90
2018-07-10T04:57:23.377Z,95
2018-07-10T04:58:31.445Z,100
2018-07-10T04:59:39.505Z,100
2018-07-10T05:00:47.579Z,100
2018-07-10T05:01:55.649Z,105
2018-07-10T05:03:04.000Z,100
2018-07-10T05:04:11.766Z,90
2018-07-10T05:05:19.873Z,80
2018-07-10T05:06:27.924Z,80
2018-07-10T05:07:36.270Z,70
2018-07-10T05:08:44.029Z,70
2018-07-10T05:09:52.476Z,70
2018-07-10T05:11:00.191Z,70
2018-07-10T05:12:08.289Z,70
2018-07-10T05:13:16.338Z,80
2018-07-10T05:14:24.382Z,95
2018-07-10T05:15:32.470Z,105
2018-07-10T05:16:40.532Z,115
2018-07-10T05:17:48.676Z,130
2018-07-10T05:18:56.683Z,145
2018-07-10T05:20:04.746Z,155
2018-07-10T05:21:12.807Z,160
2018-07-10T05:22:20.873Z,160
2018-07-10T05:23:29.543Z,150
2018-07-10T05:24:37.017Z,160
2018-07-10T05:25:45.079Z,175
2018-07-10T05:26:53.144Z,190
2018-07-10T05:28:01.208Z,205
2018-07-10T05:29:09.312Z,195
2018-07-10T05:30:17.337Z,180
2018-07-10T05:31:25.490Z,175
2018-07-10T05:32:33.447Z,160
2018-07-10T05:33:41.549Z,150
2018-07-10T05:34:49.626Z,140
2018-07-10T05:35:57.677Z,130
2018-07-10T05:37:05.807Z,135
2018-07-10T05:38:13.781Z,140
2018-07-10T05:39:21.875Z,150
2018-07-10T05:40:29.961Z,165
2018-07-10T05:41:38.010Z,190
2018-07-10T05:42:46.086Z,210
2018-07-10T05:43:54.141Z,200
2018-07-10T05:45:02.230Z,175
2018-07-10T05:46:10.291Z,175
2018-07-10T05:47:18.358Z,190
2018-07-10T05:48:26.427Z,200
2018-07-10T05:49:34.493Z,215
2018-07-10T05:50:42.563Z,255
2018-07-10T05:51:50.706Z,310
2018-07-10T05:52:58.701Z,345
2018-07-10T05:54:06.755Z,340
2018-07-10T05:55:14.841Z,315
2018-07-10T05:56:22.904Z,305
2018-07-10T05:57:30.980Z,305
2018-07-10T05:58:39.062Z,305
2018-07-10T05:59:47.123Z,315
2018-07-10T06:00:55.179Z,335
2018-07-10T06:02:22.456Z,340
2018-07-10T06:03:13.522Z,325
2018-07-10T06:04:22.656Z,300
2018-07-10T06:05:29.873Z,285
2018-07-10T06:06:37.946Z,265
2018-07-10T06:07:46.014Z,260
2018-07-10T06:08:54.063Z,255
2018-07-10T06:10:10.625Z,255
2018-07-10T06:11:17.283Z,245
2018-07-10T06:12:25.357Z,230
2018-07-10T06:13:33.410Z,210
2018-07-10T06:14:41.509Z,190
2018-07-10T06:15:49.577Z,165
2018-07-10T06:16:57.850Z,155
2018-07-10T06:18:05.920Z,155
2018-07-10T06:19:14.078Z,165
2018-07-10T06:20:22.060Z,170
2018-07-10T06:21:30.132Z,190
2018-07-10T06:22:38.461Z,205
2018-07-10T06:23:46.257Z,210
2018-07-10T06:24:54.320Z,195
2018-07-10T06:26:02.412Z,175
2018-07-10T06:27:14.779Z,165
2018-07-10T06:28:30.317Z,175
2018-07-10T06:29:27.604Z,205
2018-07-10T06:30:35.695Z,230
2018-07-10T06:31:46.979Z,245
2018-07-10T06:32:54.427Z,265
2018-07-10T06:34:02.523Z,255
2018-07-10T06:35:10.581Z,225
2018-07-10T06:36:18.656Z,190
2018-07-10T06:37:26.826Z,180
2018-07-10T06:38:34.772Z,185
2018-07-10T06:39:42.896Z,195
2018-07-10T06:40:50.923Z,205
2018-07-10T06:42:01.234Z,210
2018-07-10T06:43:09.066Z,200
2018-07-10T06:44:17.131Z,180
2018-07-10T06:45:25.208Z,175
2018-07-10T06:46:33.265Z,170
2018-07-10T06:47:41.343Z,165
2018-07-10T06:48:49.443Z,160
2018-07-10T06:49:57.504Z,185
2018-07-10T06:51:05.546Z,220
2018-07-10T06:52:13.685Z,260
2018-07-10T06:53:22.256Z,290
2018-07-10T06:54:29.775Z,305
2018-07-10T06:55:37.821Z,330
2018-07-10T06:56:45.922Z,360
2018-07-10T06:57:53.952Z,335
2018-07-10T06:59:02.037Z,300
2018-07-10T07:00:10.099Z,280
2018-07-10T07:01:18.182Z,275
2018-07-10T07:02:26.244Z,270
2018-07-10T07:03:34.296Z,280
2018-07-10T07:04:42.394Z,305
2018-07-10T07:05:50.456Z,335
2018-07-10T07:06:58.521Z,365
2018-07-10T07:08:06.600Z,380
2018-07-10T07:09:14.656Z,385
2018-07-10T07:10:22.724Z,390
2018-07-10T07:11:33.023Z,400
2018-07-10T07:12:41.091Z,400
2018-07-10T07:13:49.154Z,425
2018-07-10T07:14:57.228Z,430
2018-07-10T07:16:05.450Z,425
2018-07-10T07:17:13.355Z,405
2018-07-10T07:18:21.424Z,355
2018-07-10T07:19:29.492Z,315
2018-07-10T07:20:37.560Z,340
2018-07-10T07:21:45.660Z,370
2018-07-10T07:22:53.681Z,390
2018-07-10T07:24:01.782Z,425
2018-07-10T07:25:09.848Z,435
2018-07-10T07:26:17.931Z,430
2018-07-10T07:27:25.998Z,415
2018-07-10T07:28:34.062Z,425
2018-07-10T07:29:42.133Z,420
2018-07-10T07:30:50.207Z,425
2018-07-10T07:31:58.266Z,430
2018-07-10T07:33:06.343Z,430
2018-07-10T07:34:14.402Z,420
2018-07-10T07:35:22.485Z,410
2018-07-10T07:36:30.552Z,445
2018-07-10T07:37:38.624Z,485
2018-07-10T07:38:46.708Z,475
2018-07-10T07:39:54.797Z,455
2018-07-10T07:41:02.836Z,435
2018-07-10T07:42:10.917Z,410
2018-07-10T07:43:18.994Z,380
2018-07-10T07:44:27.213Z,345
2018-07-10T07:45:35.130Z,320
2018-07-10T07:46:43.194Z,290
2018-07-10T07:47:51.266Z,270
2018-07-10T07:48:59.344Z,300
2018-07-10T07:50:07.422Z,320
2018-07-10T07:51:15.478Z,265
2018-07-10T07:52:23.575Z,245
2018-07-10T07:53:31.624Z,270
2018-07-10T07:54:39.702Z,305
2018-07-10T07:55:47.759Z,330
2018-07-10T07:56:55.826Z,340
2018-07-10T07:58:03.883Z,355
2018-07-10T07:59:11.986Z,365
2018-07-10T08:00:20.061Z,370
2018-07-10T08:01:28.112Z,315
2018-07-10T08:02:36.197Z,255
2018-07-10T08:03:44.255Z,265
2018-07-10T08:04:52.332Z,320
2018-07-10T08:06:00.393Z,390
2018-07-10T08:07:08.465Z,420
2018-07-10T08:08:16.546Z,400
2018-07-10T08:09:24.616Z,370
2018-07-10T08:10:32.673Z,350
2018-07-10T08:11:40.759Z,320
2018-07-10T08:12:48.820Z,280
2018-07-10T08:13:56.897Z,250
2018-07-10T08:15:04.974Z,215
2018-07-10T08:16:13.048Z,190
2018-07-10T08:17:21.105Z,195
2018-07-10T08:18:29.176Z,195
2018-07-10T08:19:37.263Z,200
2018-07-10T08:20:45.325Z,220
2018-07-10T08:21:53.385Z,265
2018-07-10T08:23:01.465Z,280
2018-07-10T08:24:09.534Z,245
2018-07-10T08:25:17.608Z,235
2018-07-10T08:26:25.680Z,240
2018-07-10T08:27:33.755Z,210
2018-07-10T08:28:41.814Z,195
2018-07-10T08:29:49.888Z,220
2018-07-10T08:30:57.956Z,245
2018-07-10T08:32:06.029Z,250
2018-07-10T08:33:14.133Z,260
2018-07-10T08:34:22.176Z,310
2018-07-10T08:35:30.252Z,300
2018-07-10T08:36:38.318Z,305
2018-07-10T08:37:46.379Z,345
2018-07-10T08:38:54.452Z,340
2018-07-10T08:40:02.519Z,355
2018-07-10T08:41:10.571Z,315
2018-07-10T08:42:18.672Z,260
2018-07-10T08:43:26.993Z,235
2018-07-10T08:44:34.798Z,270
2018-07-10T08:45:42.921Z,320
2018-07-10T08:46:50.937Z,335
2018-07-10T08:47:59.279Z,330
2018-07-10T08:49:07.094Z,320
2018-07-10T08:50:15.162Z,305
2018-07-10T08:51:23.230Z,295
2018-07-10T08:52:31.301Z,300
2018-07-10T08:53:39.358Z,305
2018-07-10T08:54:47.435Z,310
2018-07-10T08:55:55.506Z,310
2018-07-10T08:57:03.549Z,325
2018-07-10T08:58:11.649Z,335
2018-07-10T08:59:19.716Z,320
2018-07-10T09:00:27.792Z,315
2018-07-10T09:01:35.864Z,315
2018-07-10T09:02:43.899Z,345
2018-07-10T09:03:52.006Z,370
2018-07-10T09:05:00.061Z,405
2018-07-10T09:06:08.152Z,425
2018-07-10T09:07:16.225Z,455
2018-07-10T09:08:24.271Z,485
2018-07-10T09:09:32.357Z,505
2018-07-10T09:10:40.427Z,520
2018-07-10T09:11:48.488Z,550
2018-07-10T09:12:56.565Z,595
2018-07-10T09:14:04.629Z,650
2018-07-10T09:15:12.698Z,655
2018-07-10T09:16:20.780Z,680
2018-07-10T09:17:28.895Z,755
2018-07-10T09:18:36.930Z,760
2018-07-10T09:19:44.998Z,870
2018-07-10T09:20:53.056Z,925
2018-07-10T09:22:01.143Z,1035
2018-07-10T09:23:09.229Z,1005
2018-07-10T09:24:17.284Z,970
2018-07-10T09:25:25.367Z,970
2018-07-10T09:26:33.403Z,995
2018-07-10T09:27:41.506Z,790
2018-07-10T09:28:49.584Z,735
2018-07-10T09:30:00.271Z,710
2018-07-10T09:31:08.339Z,710
2018-07-10T09:32:16.443Z,705
2018-07-10T09:33:24.484Z,710
2018-07-10T09:34:32.559Z,720
2018-07-10T09:35:40.630Z,705
2018-07-10T09:36:48.698Z,755
2018-07-10T09:37:56.776Z,825
2018-07-10T09:39:04.855Z,865
2018-07-10T09:40:13.179Z,905
2018-07-10T09:41:21.212Z,955
2018-07-10T09:42:29.379Z,935
2018-07-10T09:43:37.352Z,895
2018-07-10T09:44:45.411Z,875
2018-07-10T09:45:53.470Z,850
2018-07-10T09:47:01.594Z,840
2018-07-10T09:48:09.649Z,845
2018-07-10T09:49:17.715Z,845
2018-07-10T09:50:25.791Z,840
2018-07-10T09:51:33.833Z,810
2018-07-10T09:52:41.941Z,785
2018-07-10T09:53:49.999Z,785
2018-07-10T09:54:58.112Z,790
2018-07-10T09:56:06.157Z,795
2018-07-10T09:57:14.296Z,785
2018-07-10T09:58:22.326Z,790
2018-07-10T09:59:30.383Z,785
2018-07-10T10:00:38.456Z,790
2018-07-10T10:01:46.555Z,785
2018-07-10T10:02:56.993Z,770
2018-07-10T10:04:02.675Z,770
2018-07-10T10:06:32.749Z,815
2018-07-10T10:07:40.845Z,840
2018-07-10T10:08:48.898Z,880
2018-07-10T10:09:56.985Z,860
2018-07-10T10:11:05.064Z,830
2018-07-10T10:12:18.987Z,765
2018-07-10T10:13:27.066Z,665
2018-07-10T10:14:35.144Z,620
2018-07-10T10:15:43.224Z,575
2018-07-10T10:16:51.293Z,545
2018-07-10T10:17:59.357Z,540
2018-07-10T10:19:07.429Z,535
2018-07-10T10:20:15.501Z,545
2018-07-10T10:21:23.546Z,580
2018-07-10T10:22:31.650Z,615
2018-07-10T10:23:39.733Z,645
2018-07-10T10:24:47.807Z,710
2018-07-10T10:25:55.982Z,810
2018-07-10T10:27:03.923Z,895
2018-07-10T10:28:12.038Z,905
2018-07-10T10:29:20.095Z,910
2018-07-10T10:30:28.175Z,910
2018-07-10T10:31:36.255Z,880
2018-07-10T10:32:44.297Z,860
2018-07-10T10:33:52.391Z,845
2018-07-10T10:35:00.466Z,825
2018-07-10T10:36:08.553Z,805
2018-07-10T10:37:16.609Z,790
2018-07-10T10:38:24.672Z,775
2018-07-10T10:39:32.766Z,775
2018-07-10T10:40:40.842Z,745
2018-07-10T10:41:48.909Z,735
2018-07-10T10:42:56.977Z,710
2018-07-10T10:44:05.055Z,690
2018-07-10T10:45:13.139Z,725
2018-07-10T10:46:21.210Z,760
2018-07-10T10:47:29.293Z,765
2018-07-10T10:48:37.352Z,735
2018-07-10T10:49:45.444Z,695
2018-07-10T10:50:53.516Z,670
2018-07-10T10:52:01.583Z,725
2018-07-10T10:53:09.649Z,755
2018-07-10T10:54:17.732Z,740
2018-07-10T10:55:25.819Z,630
2018-07-10T10:56:33.851Z,555
2018-07-10T10:57:41.955Z,495
2018-07-10T10:58:50.037Z,465
2018-07-10T10:59:58.113Z,410
2018-07-10T11:01:06.179Z,400
2018-07-10T11:02:14.244Z,440
2018-07-10T11:03:22.338Z,485
2018-07-10T11:04:30.407Z,430
2018-07-10T11:05:38.464Z,385
2018-07-10T11:06:46.544Z,380
2018-07-10T11:07:54.623Z,425
2018-07-10T11:09:02.695Z,475
2018-07-10T11:10:10.762Z,580
2018-07-10T11:11:18.838Z,630
2018-07-10T11:12:26.916Z,655
2018-07-10T11:13:35.004Z,610
2018-07-10T11:14:43.074Z,585
2018-07-10T11:15:51.138Z,605
2018-07-10T11:16:59.220Z,635
2018-07-10T11:18:07.289Z,585
2018-07-10T11:19:15.368Z,565
2018-07-10T11:20:23.421Z,545
2018-07-10T11:21:31.514Z,505
2018-07-10T11:22:39.586Z,505
2018-07-10T11:23:47.666Z,570
2018-07-10T11:24:55.738Z,595
2018-07-10T11:26:03.778Z,575
2018-07-10T11:27:11.897Z,575
2018-07-10T11:28:19.959Z,525
2018-07-10T11:29:28.043Z,525
2018-07-10T11:30:36.193Z,505
2018-07-10T11:31:44.199Z,530
2018-07-10T11:32:52.265Z,555
2018-07-10T11:34:00.331Z,540
2018-07-10T11:35:08.409Z,515
2018-07-10T11:36:16.481Z,515
2018-07-10T11:37:24.546Z,560
2018-07-10T11:38:32.632Z,610
2018-07-10T11:39:40.701Z,630
2018-07-10T11:40:48.773Z,580
2018-07-10T11:41:56.843Z,535
2018-07-10T11:43:04.920Z,555
2018-07-10T11:44:12.990Z,565
2018-07-10T11:45:21.065Z,515
2018-07-10T11:46:29.145Z,465
2018-07-10T11:47:37.206Z,415
2018-07-10T11:48:45.296Z,395
2018-07-10T11:49:53.368Z,405
2018-07-10T11:51:01.443Z,425
2018-07-10T11:52:09.516Z,495
2018-07-10T11:53:17.586Z,525
2018-07-10T11:54:25.658Z,555
2018-07-10T11:55:33.710Z,590
2018-07-10T11:56:41.805Z,640
2018-07-10T11:57:49.880Z,655
2018-07-10T11:58:57.971Z,650
2018-07-10T12:00:06.038Z,590
2018-07-10T12:01:14.084Z,625
2018-07-10T12:02:22.178Z,690
2018-07-10T12:03:30.255Z,730
2018-07-10T12:04:38.335Z,750
2018-07-10T12:05:46.422Z,735
2018-07-10T12:06:55.084Z,705
2018-07-10T12:08:03.161Z,630
2018-07-10T12:09:11.234Z,615
2018-07-10T12:10:19.313Z,620
2018-07-10T12:11:27.362Z,615
2018-07-10T12:12:35.475Z,535
2018-07-10T12:13:43.524Z,540
2018-07-10T12:14:51.605Z,590
2018-07-10T12:15:59.681Z,580
2018-07-10T12:17:07.751Z,530
2018-07-10T12:18:15.831Z,560
2018-07-10T12:19:23.882Z,555
2018-07-10T12:20:31.988Z,535
2018-07-10T12:21:40.066Z,490
2018-07-10T12:22:48.150Z,470
2018-07-10T12:23:56.210Z,495
2018-07-10T12:25:04.525Z,460
2018-07-10T12:26:12.361Z,380
2018-07-10T12:27:20.436Z,355
2018-07-10T12:28:28.510Z,385
2018-07-10T12:29:36.586Z,420
2018-07-10T12:30:44.661Z,495
2018-07-10T12:31:52.731Z,515
2018-07-10T12:33:00.807Z,440
2018-07-10T12:34:08.885Z,390
2018-07-10T12:35:16.972Z,355
2018-07-10T12:36:25.038Z,325
2018-07-10T12:37:33.100Z,320
2018-07-10T12:38:41.182Z,315
2018-07-10T12:39:49.261Z,315
2018-07-10T12:40:57.337Z,310
2018-07-10T12:42:05.404Z,360
2018-07-10T12:43:13.460Z,400
2018-07-10T12:44:21.567Z,445
2018-07-10T12:45:29.626Z,455
2018-07-10T12:46:37.702Z,420
2018-07-10T12:47:45.773Z,360
2018-07-10T12:48:53.832Z,345
2018-07-10T12:50:01.923Z,325
2018-07-10T12:51:09.987Z,310
2018-07-10T12:52:18.066Z,305
2018-07-10T12:53:26.141Z,310
2018-07-10T12:54:34.183Z,325
2018-07-10T12:55:42.287Z,380
2018-07-10T12:56:50.357Z,400
2018-07-10T12:57:58.451Z,455
2018-07-10T12:59:06.503Z,510
2018-07-10T13:00:14.579Z,505
2018-07-10T13:01:25.059Z,500
2018-07-10T13:02:33.742Z,505
2018-07-10T13:03:40.403Z,480
2018-07-10T13:04:48.469Z,460
2018-07-10T13:06:09.925Z,455
2018-07-10T13:07:08.858Z,430
2018-07-10T13:08:18.950Z,405
2018-07-10T13:09:25.617Z,360
2018-07-10T13:10:33.655Z,330
2018-07-10T13:11:41.765Z,310
2018-07-10T13:12:49.843Z,325
2018-07-10T13:13:57.901Z,375
2018-07-10T13:15:05.978Z,435
2018-07-10T13:16:14.018Z,485
2018-07-10T13:17:22.121Z,520
2018-07-10T13:18:34.432Z,540
2018-07-10T13:20:59.655Z,530
2018-07-10T13:22:07.728Z,550
2018-07-10T13:23:35.121Z,560
2018-07-10T13:24:23.949Z,560
2018-07-10T13:25:31.960Z,565
2018-07-10T13:26:40.017Z,605
2018-07-10T13:27:48.098Z,630
2018-07-10T13:28:56.164Z,620
2018-07-10T13:30:04.221Z,595
2018-07-10T13:31:12.319Z,575
2018-07-10T13:32:20.388Z,580
2018-07-10T13:33:28.455Z,585
2018-07-10T13:34:36.532Z,570
2018-07-10T13:35:44.653Z,545
2018-07-10T13:36:52.678Z,530
2018-07-10T13:38:00.757Z,520
2018-07-10T13:39:08.823Z,520
2018-07-10T13:40:16.894Z,540
2018-07-10T13:41:24.968Z,560
2018-07-10T13:42:33.047Z,560
2018-07-10T13:43:41.103Z,565
2018-07-10T13:44:49.182Z,540
2018-07-10T13:45:57.261Z,495
2018-07-10T13:47:05.355Z,455
2018-07-10T13:48:13.397Z,420
2018-07-10T13:49:21.568Z,405
2018-07-10T13:50:29.560Z,395
2018-07-10T13:51:37.637Z,390
2018-07-10T13:52:45.692Z,380
2018-07-10T13:53:53.752Z,360
2018-07-10T13:55:01.849Z,340
2018-07-10T13:56:09.915Z,335
2018-07-10T13:57:17.988Z,345
2018-07-10T13:58:26.064Z,365
2018-07-10T13:59:34.108Z,380
2018-07-10T14:00:42.205Z,395
2018-07-10T14:01:50.282Z,395
2018-07-10T14:02:58.351Z,385
2018-07-10T14:04:06.416Z,370
2018-07-10T14:05:14.492Z,365
2018-07-10T14:06:22.563Z,365
2018-07-10T14:07:30.631Z,360
2018-07-10T14:08:38.713Z,355
2018-07-10T14:09:46.792Z,360
2018-07-10T14:10:54.859Z,370
2018-07-10T14:13:17.052Z,435
2018-07-10T14:14:25.136Z,465
2018-07-10T14:15:33.212Z,500
2018-07-10T14:16:41.260Z,545
2018-07-10T14:17:49.339Z,580
2018-07-10T14:18:57.414Z,615
2018-07-10T14:20:05.491Z,680
2018-07-10T14:21:13.522Z,655
2018-07-10T14:22:21.628Z,590
2018-07-10T14:23:29.691Z,540
2018-07-10T14:24:37.795Z,510
2018-07-10T14:25:45.850Z,485
2018-07-10T14:26:53.890Z,475
2018-07-10T14:28:02.000Z,465
2018-07-10T14:29:10.078Z,465
2018-07-10T14:30:18.134Z,470
2018-07-10T14:31:26.216Z,490
2018-07-10T14:32:34.258Z,505
2018-07-10T14:33:42.351Z,515
2018-07-10T14:34:50.475Z,510
2018-07-10T14:35:58.502Z,490
2018-07-10T14:37:06.577Z,455
2018-07-10T14:38:14.653Z,410
2018-07-10T14:39:22.703Z,355
2018-07-10T14:40:30.774Z,350
2018-07-10T14:41:38.854Z,335
2018-07-10T14:42:46.937Z,320
2018-07-10T14:43:54.993Z,315
2018-07-10T14:45:03.058Z,335
2018-07-10T14:46:11.142Z,355
2018-07-10T14:47:19.227Z,395
2018-07-10T14:48:27.292Z,410
2018-07-10T14:49:35.363Z,430
2018-07-10T14:50:43.417Z,410
2018-07-10T14:51:51.529Z,350
2018-07-10T14:52:59.636Z,315
2018-07-10T14:54:07.645Z,300
2018-07-10T14:55:15.720Z,325
2018-07-10T14:56:23.772Z,355
2018-07-10T14:57:31.845Z,370
2018-07-10T14:58:39.942Z,370
2018-07-10T14:59:48.003Z,365
2018-07-10T15:00:56.081Z,375
2018-07-10T15:02:04.123Z,355
2018-07-10T15:03:12.429Z,295
2018-07-10T15:04:20.504Z,260
2018-07-10T15:05:28.590Z,250
2018-07-10T15:06:36.648Z,265
2018-07-10T15:07:44.721Z,270
2018-07-10T15:08:52.781Z,275
2018-07-10T15:10:00.857Z,305
2018-07-10T15:11:08.930Z,360
2018-07-10T15:12:17.010Z,390
2018-07-10T15:13:25.056Z,380
2018-07-10T15:14:33.165Z,330
2018-07-10T15:15:41.216Z,295
2018-07-10T15:16:49.279Z,295
2018-07-10T15:17:57.364Z,295
2018-07-10T15:19:05.445Z,310
2018-07-10T15:20:13.485Z,330
2018-07-10T15:21:21.574Z,300
2018-07-10T15:22:29.641Z,300
2018-07-10T15:23:37.789Z,270
2018-07-10T15:24:45.801Z,250
2018-07-10T15:25:53.841Z,270
2018-07-10T15:27:01.925Z,325
2018-07-10T15:28:09.986Z,375
2018-07-10T15:29:18.067Z,385
2018-07-10T15:30:26.142Z,380
2018-07-10T15:31:34.186Z,370
2018-07-10T15:32:42.297Z,340
2018-07-10T15:33:50.372Z,340
2018-07-10T15:34:58.416Z,335
2018-07-10T15:36:06.502Z,330
2018-07-10T15:37:14.582Z,340
2018-07-10T15:38:22.642Z,350
2018-07-10T15:39:30.707Z,395
2018-07-10T15:40:38.785Z,450
2018-07-10T15:41:46.921Z,460
2018-07-10T15:42:54.940Z,465
2018-07-10T15:44:02.995Z,470
2018-07-10T15:45:11.060Z,450
2018-07-10T15:46:19.140Z,410
2018-07-10T15:47:27.207Z,390
2018-07-10T15:48:35.279Z,385
2018-07-10T15:49:43.337Z,380
2018-07-10T15:50:51.477Z,395
2018-07-10T15:51:59.498Z,400
2018-07-10T15:53:07.570Z,400
2018-07-10T15:54:15.629Z,400
2018-07-10T15:55:23.687Z,395
2018-07-10T15:56:31.788Z,395
2018-07-10T15:57:39.849Z,375
2018-07-10T15:58:47.922Z,345
2018-07-10T15:59:55.999Z,355